»·PEaware :: ASA102 KOAK-KSEA

ASA102 :: KOAK-KSEA

FLIGHT INFORMATION

Flight Status: Arrived
Operator:
Alaska Airlines
More flights by this operator :: More flights under this callsign
Pilot: Brice B. (24277)
Aircraft: BOEING 737-800
(B738)
More flights by this aircraft type
Origin: KOAK Metro Oakland Intl
United States
Destination: KSEA Seattle-Tacoma Intl
United States
More flights between these airports :: More routes between these airports
Route: +OAK4 OAK DEDHD RBL LMT HAWKZ7
File this flight plan on PilotEdge
Remarks:
Altitude:
(Current/Filed)
38,000ft
Speed:
(Current/Filed)
520kts
Departed: 18-Oct-19 02:17 PM
Arrived: 18-Oct-19 03:55 PM
Distance/Time
Traveled:
584nm/1:38
Distance/Time
To Go:
Arrived

Flight Plot

Page will automatically refresh every two minutes.

Flight plan parsing failed; only flown route is shown


Map Options




Map Legend


Flown Route
Filed Route
Departure Airport
Arrival Airport
Navaid (VOR, NDB)
Fix

Horizontal Profiles

Position Reports

Time Latitude Longitude Heading Altitude Ground
Speed
18-Oct-19 13:40 37.710112 -122.216579 25 11ft 0kts
18-Oct-19 13:41 37.710112 -122.216579 25 11ft 0kts
18-Oct-19 13:42 37.710112 -122.216579 25 11ft 0kts
18-Oct-19 13:43 37.710112 -122.216579 25 11ft 0kts
18-Oct-19 13:44 37.710112 -122.216579 25 11ft 0kts
18-Oct-19 13:45 37.710112 -122.216579 25 11ft 0kts
18-Oct-19 13:46 37.710112 -122.216579 25 11ft 0kts
18-Oct-19 13:47 37.710112 -122.216579 25 11ft 0kts
18-Oct-19 13:48 37.710112 -122.216579 25 11ft 0kts
18-Oct-19 13:49 37.710112 -122.216579 25 11ft 0kts
18-Oct-19 13:50 37.710112 -122.216579 25 11ft 0kts
18-Oct-19 13:51 37.710112 -122.216579 25 11ft 0kts
18-Oct-19 13:52 37.710112 -122.216579 25 11ft 0kts
18-Oct-19 13:53 37.710112 -122.216579 25 11ft 0kts
18-Oct-19 13:54 37.710112 -122.216579 25 11ft 0kts
18-Oct-19 13:55 37.710112 -122.216579 25 11ft 0kts
18-Oct-19 13:56 37.710112 -122.216579 25 11ft 0kts
18-Oct-19 13:57 37.710112 -122.216579 25 11ft 0kts
18-Oct-19 13:58 37.710112 -122.216579 25 11ft 0kts
18-Oct-19 13:59 37.710112 -122.216579 25 11ft 0kts
18-Oct-19 14:00 37.710112 -122.216579 25 11ft 0kts
18-Oct-19 14:01 37.710112 -122.216579 25 11ft 0kts
18-Oct-19 14:02 37.710112 -122.216579 25 11ft 0kts
18-Oct-19 14:03 37.710112 -122.216579 25 11ft 0kts
18-Oct-19 14:04 37.710112 -122.216579 25 11ft 0kts
18-Oct-19 14:05 37.710112 -122.216579 25 11ft 0kts
18-Oct-19 14:06 37.709843 -122.216742 25 11ft 2kts
18-Oct-19 14:07 37.709580 -122.217249 124 11ft 0kts
18-Oct-19 14:08 37.709629 -122.217323 128 11ft 0kts
18-Oct-19 14:09 37.709629 -122.217323 128 11ft 0kts
18-Oct-19 14:10 37.709629 -122.217323 128 11ft 0kts
18-Oct-19 14:11 37.708495 -122.216127 197 11ft 8kts
18-Oct-19 14:12 37.705582 -122.216650 130 11ft 12kts
18-Oct-19 14:13 37.702706 -122.213543 162 11ft 4kts
18-Oct-19 14:14 37.702359 -122.213519 195 11ft 0kts
18-Oct-19 14:15 37.701845 -122.214758 304 11ft 6kts
18-Oct-19 14:16 37.720341 -122.241698 308 831ft 158kts
18-Oct-19 14:17 37.750429 -122.288627 306 2611ft 198kts
18-Oct-19 14:18 37.794023 -122.349496 323 4635ft 255kts
18-Oct-19 14:19 37.861157 -122.333374 48 7591ft 288kts
18-Oct-19 14:20 37.918052 -122.266023 14 10348ft 294kts
18-Oct-19 14:21 38.002380 -122.234609 12 12637ft 328kts
18-Oct-19 14:22 38.091704 -122.201703 11 15483ft 342kts
18-Oct-19 14:23 38.184456 -122.167813 10 18141ft 357kts
18-Oct-19 14:24 38.281974 -122.132239 10 20559ft 372kts
18-Oct-19 14:25 38.383932 -122.115817 351 22727ft 374kts
18-Oct-19 14:26 38.489463 -122.123318 350 24732ft 387kts
18-Oct-19 14:27 38.598478 -122.130789 350 26551ft 400kts
18-Oct-19 14:28 38.711018 -122.138573 350 28182ft 412kts
18-Oct-19 14:29 38.826864 -122.146543 349 29675ft 424kts
18-Oct-19 14:30 38.945667 -122.154753 348 31188ft 431kts
18-Oct-19 14:31 39.064501 -122.163011 347 32986ft 425kts
18-Oct-19 14:32 39.181310 -122.171174 346 34535ft 421kts
18-Oct-19 14:33 39.297687 -122.179378 346 35890ft 418kts
18-Oct-19 14:34 39.413486 -122.187524 346 37008ft 417kts
18-Oct-19 14:35 39.528796 -122.195655 346 37982ft 416kts
18-Oct-19 14:36 39.646869 -122.204076 346 38072ft 433kts
18-Oct-19 14:37 39.766504 -122.212481 346 38069ft 430kts
18-Oct-19 14:38 39.885314 -122.220956 346 38069ft 430kts
18-Oct-19 14:39 40.004781 -122.229487 346 38069ft 433kts
18-Oct-19 14:40 40.125053 -122.229868 358 38076ft 445kts
18-Oct-19 14:41 40.247134 -122.200695 0 38069ft 449kts
18-Oct-19 14:42 40.370069 -122.171030 0 38064ft 449kts
18-Oct-19 14:43 40.492323 -122.141414 0 38046ft 449kts
18-Oct-19 14:44 40.614862 -122.111623 0 38045ft 449kts
18-Oct-19 14:45 40.737959 -122.081579 0 38045ft 450kts
18-Oct-19 14:46 40.860434 -122.051578 0 38049ft 450kts
18-Oct-19 14:47 40.983644 -122.021284 0 38058ft 450kts
18-Oct-19 14:48 41.103952 -121.991539 359 38052ft 441kts
18-Oct-19 14:49 41.223287 -121.962009 359 38067ft 438kts
18-Oct-19 14:50 41.343169 -121.932217 359 38076ft 441kts
18-Oct-19 14:51 41.463726 -121.902103 0 38074ft 441kts
18-Oct-19 14:52 41.583237 -121.872165 359 38079ft 440kts
18-Oct-19 14:53 41.703485 -121.841925 0 38093ft 440kts
18-Oct-19 14:54 41.823570 -121.811615 0 38102ft 438kts
18-Oct-19 14:55 41.943482 -121.781228 0 38102ft 440kts
18-Oct-19 14:56 42.063751 -121.750631 359 38102ft 440kts
18-Oct-19 14:57 42.182105 -121.735427 343 38110ft 416kts
18-Oct-19 14:59 42.294873 -121.759583 340 38106ft 413kts
18-Oct-19 15:00 42.407784 -121.785293 340 38104ft 411kts
18-Oct-19 15:01 42.520136 -121.810958 340 38103ft 410kts
18-Oct-19 15:02 42.632101 -121.836619 340 38103ft 410kts
18-Oct-19 15:03 42.744285 -121.862414 340 38102ft 410kts
18-Oct-19 15:04 42.856081 -121.888213 340 38101ft 410kts
18-Oct-19 15:05 42.967154 -121.913916 340 38099ft 403kts
18-Oct-19 15:06 43.075136 -121.939027 339 38096ft 393kts
18-Oct-19 15:07 43.182535 -121.964138 340 38105ft 397kts
18-Oct-19 15:08 43.290989 -121.989511 340 38075ft 396kts
18-Oct-19 15:09 43.399138 -122.015055 339 38047ft 397kts
18-Oct-19 15:10 43.508040 -122.040793 340 38026ft 398kts
18-Oct-19 15:11 43.616544 -122.066492 340 38018ft 401kts
18-Oct-19 15:12 43.726116 -122.092503 340 38016ft 399kts
18-Oct-19 15:13 43.835409 -122.118583 340 38015ft 400kts
18-Oct-19 15:14 43.944848 -122.144785 340 38013ft 400kts
18-Oct-19 15:15 44.053987 -122.171011 340 38014ft 400kts
18-Oct-19 15:16 44.162388 -122.197153 340 38027ft 400kts
18-Oct-19 15:17 44.271339 -122.223525 340 38032ft 399kts
18-Oct-19 15:17 44.362240 -122.245603 340 38034ft 399kts
18-Oct-19 15:19 44.489241 -122.276571 340 38029ft 399kts
18-Oct-19 15:19 44.579982 -122.298770 339 38035ft 398kts
18-Oct-19 15:20 44.688950 -122.325554 340 38031ft 400kts
18-Oct-19 15:21 44.798537 -122.352557 340 38036ft 400kts
18-Oct-19 15:23 44.925794 -122.384073 340 38035ft 400kts
18-Oct-19 15:23 45.017217 -122.406817 340 38036ft 404kts
18-Oct-19 15:24 45.128813 -122.434690 340 38042ft 419kts
18-Oct-19 15:25 45.242548 -122.463091 340 38027ft 417kts
18-Oct-19 15:26 45.354059 -122.491494 340 38020ft 417kts
18-Oct-19 15:27 45.466988 -122.519989 340 38012ft 417kts
18-Oct-19 15:28 45.580154 -122.548669 340 38011ft 417kts
18-Oct-19 15:29 45.693552 -122.577538 340 38011ft 418kts
18-Oct-19 15:30 45.808807 -122.606547 341 38004ft 423kts
18-Oct-19 15:31 45.924120 -122.635061 341 37542ft 429kts
18-Oct-19 15:32 46.040920 -122.664039 340 34971ft 423kts
18-Oct-19 15:33 46.156736 -122.690066 342 32016ft 426kts
18-Oct-19 15:34 46.272299 -122.712649 343 29075ft 434kts
18-Oct-19 15:35 46.390294 -122.724829 350 26343ft 430kts
18-Oct-19 15:36 46.508373 -122.728885 350 23616ft 419kts
18-Oct-19 15:37 46.622946 -122.733033 351 20927ft 410kts
18-Oct-19 15:38 46.735332 -122.737109 351 18240ft 400kts
18-Oct-19 15:39 46.831326 -122.684162 34 16784ft 376kts
18-Oct-19 15:40 46.912034 -122.591282 33 15218ft 357kts
18-Oct-19 15:41 46.997054 -122.535937 10 14398ft 330kts
18-Oct-19 15:42 47.084398 -122.499669 2 12795ft 320kts
18-Oct-19 15:43 47.170945 -122.483543 1 11162ft 311kts
18-Oct-19 15:44 47.254307 -122.470193 0 9898ft 293kts
18-Oct-19 15:45 47.334464 -122.457974 1 8431ft 279kts
18-Oct-19 15:46 47.409185 -122.455162 355 7301ft 268kts
18-Oct-19 15:47 47.483337 -122.455269 357 6220ft 257kts
18-Oct-19 15:48 47.553101 -122.455097 358 5237ft 256kts
18-Oct-19 15:49 47.607162 -122.409948 75 4040ft 218kts
18-Oct-19 15:50 47.594301 -122.340625 142 2987ft 172kts
18-Oct-19 15:51 47.551637 -122.317376 177 2129ft 156kts
18-Oct-19 15:52 47.513609 -122.317860 179 1441ft 136kts
18-Oct-19 15:53 47.475618 -122.317754 179 711ft 136kts
18-Oct-19 15:54 47.448085 -122.318011 179 434ft 27kts
18-Oct-19 15:55 47.443469 -122.315432 152 434ft 9kts
18-Oct-19 15:56 47.443350 -122.315339 152 434ft 0kts
18-Oct-19 15:57 47.442687 -122.314467 128 434ft 11kts
18-Oct-19 15:58 47.441739 -122.311359 129 434ft 18kts
18-Oct-19 15:59 47.439275 -122.306512 31 434ft 11kts
18-Oct-19 16:00 47.443943 -122.306341 1 434ft 16kts
18-Oct-19 16:01 47.447647 -122.305851 71 434ft 7kts
18-Oct-19 16:02 47.447246 -122.303192 143 434ft 6kts
18-Oct-19 16:03 47.446578 -122.303440 220 434ft 0kts

Navigation Log

Ident Type
Flight plan parsing failed, navigation log unavailable